Terminal Aerodrome Forecast
Issued by NWS Blacksburg, VA

Home | Current Version | Previous Version | Text Only | Print | Product List | Glossary On
Versions: 1 2 3 4 5 6 7 8 9 10 11 12 13 14 15 16 17 18 19 20 21 22 23 24 25 26 27 28 29 30 31 32 33 34
000
FTUS41 KRNK 270527
TAFROA
TAF
KROA 270527Z 2706/2806 10003KT P6SM SKC
     FM271000 VRB03KT P6SM BKN040
     FM271700 20008KT P6SM SCT050 BKN120
     FM272000 22008KT 6SM SHRA VCTS BKN040CB OVC100
     FM280000 28006KT P6SM OVC150=

USA.gov is the U.S. government's official web portal to all federal, state and local government web resources and services.